| time (UTC) | temp C | wind direction | speed KPH | gust KPH | rain 1hr cm | rain 24hr cm | rain mn cm | humidity % | barometer mb |
| 20260906233844 | 25 | 176 | 1.6 | 1.6 | 0.00 | 0.00 | 0.00 | 33 | 1014.2 |
| 20260906233343 | 25 | 179 | 3.2 | 1.6 | 0.00 | 0.00 | 0.00 | 33 | 1014.5 |
| 20260906232838 | 25 | 193 | 1.6 | 1.6 | 0.00 | 0.00 | 0.00 | 33 | 1014.6 |
| 20260906232338 | 26 | 172 | 1.6 | 1.6 | 0.00 | 0.00 | 0.00 | 32 | 1014.6 |
| 20260906231832 | 26 | 172 | 3.2 | 3.2 | 0.00 | 0.00 | 0.00 | 31 | 1014.6 |
| 20260906231328 | 26 | 181 | 1.6 | 1.6 | 0.00 | 0.00 | 0.00 | 31 | 1014.5 |
| 20260906230827 | 26 | 207 | 4.8 | 4.8 | 0.00 | 0.00 | 0.00 | 29 | 1014.5 |
| 20260906230323 | 26 | 207 | 6.4 | 9.7 | 0.00 | 0.00 | 0.00 | 28 | 1014.6 |
| 20260906225820 | 26 | 205 | 4.8 | 4.8 | 0.00 | 0.00 | 0.00 | 29 | 1014.8 |
| 20260906225316 | 26 | 196 | 3.2 | 4.8 | 0.00 | 0.00 | 0.00 | 29 | 1014.7 |
| 20260906224812 | 26 | 201 | 3.2 | 9.7 | 0.00 | 0.00 | 0.00 | 28 | 1014.7 |
| 20260906224308 | 26 | 220 | 6.4 | 9.7 | 0.00 | 0.00 | 0.00 | 27 | 1014.9 |
| 20260906223804 | 26 | 215 | 8.0 | 11.3 | 0.00 | 0.00 | 0.00 | 28 | 1014.8 |
| 20260906223300 | 26 | 213 | 6.4 | 9.7 | 0.00 | 0.00 | 0.00 | 27 | 1014.9 |
| 20260906222758 | 26 | 204 | 4.8 | 4.8 | 0.00 | 0.00 | 0.00 | 28 | 1014.9 |
| 20260906222257 | 27 | 194 | 8.0 | 12.9 | 0.00 | 0.00 | 0.00 | 27 | 1015.1 |
| 20260906221755 | 27 | 203 | 1.6 | 1.6 | 0.00 | 0.00 | 0.00 | 28 | 1014.8 |
| 20260906221249 | 27 | 214 | 6.4 | 9.7 | 0.00 | 0.00 | 0.00 | 27 | 1015.1 |
| 20260906220745 | 28 | 201 | 6.4 | 6.4 | 0.00 | 0.00 | 0.00 | 27 | 1015.3 |
| 20260906220240 | 27 | 244 | 8.0 | 11.3 | 0.00 | 0.00 | 0.00 | 26 | 1015.3 |
| 20260906215739 | 27 | 196 | 3.2 | 4.8 | 0.00 | 0.00 | 0.00 | 26 | 1015.2 |
| 20260906215238 | 27 | 254 | 1.6 | 3.2 | 0.00 | 0.00 | 0.00 | 27 | 1015.3 |
| 20260906214737 | 28 | 216 | 6.4 | 11.3 | 0.00 | 0.00 | 0.00 | 25 | 1015.3 |
| 20260906214227 | 28 | 232 | 4.8 | 4.8 | 0.00 | 0.00 | 0.00 | 25 | 1015.4 |
| 20260906213726 | 28 | 191 | 3.2 | 3.2 | 0.00 | 0.00 | 0.00 | 25 | 1015.2 |
| 20260906213226 | 27 | 209 | 1.6 | 1.6 | 0.00 | 0.00 | 0.00 | 25 | 1015.4 |
| 20260906212722 | 26 | 200 | 4.8 | 4.8 | 0.00 | 0.00 | 0.00 | 26 | 1015.4 |
| 20260906212219 | 27 | 212 | 1.6 | 3.2 | 0.00 | 0.00 | 0.00 | 26 | 1015.5 |
| 20260906211713 | 27 | 250 | 3.2 | 3.2 | 0.00 | 0.00 | 0.00 | 25 | 1015.5 |
| 20260906211208 | 26 | 229 | 4.8 | 4.8 | 0.00 | 0.00 | 0.00 | 25 | 1015.6 |
| 20260906210703 | 26 | 185 | 4.8 | 6.4 | 0.00 | 0.00 | 0.00 | 26 | 1015.7 |
| 20260906210203 | 26 | 190 | 8.0 | 11.3 | 0.00 | 0.00 | 0.00 | 25 | 1015.9 |
| 20260906205658 | 27 | 218 | 6.4 | 9.7 | 0.00 | 0.00 | 0.00 | 25 | 1015.9 |
| 20260906205155 | 27 | 189 | 4.8 | 4.8 | 0.00 | 0.00 | 0.00 | 25 | 1016.0 |
| 20260906204654 | 27 | 194 | 3.2 | 3.2 | 0.00 | 0.00 | 0.00 | 26 | 1015.7 |
| 20260906204154 | 27 | 184 | 4.8 | 4.8 | 0.00 | 0.00 | 0.00 | 26 | 1016.1 |
| 20260906203654 | 27 | 213 | 6.4 | 9.7 | 0.00 | 0.00 | 0.00 | 25 | 1016.2 |
| 20260906203149 | 27 | 220 | 8.0 | 9.7 | 0.00 | 0.00 | 0.00 | 25 | 1016.2 |
| 20260906202646 | 27 | 216 | 4.8 | 6.4 | 0.00 | 0.00 | 0.00 | 24 | 1016.3 |
| 20260906202145 | 27 | 153 | 3.2 | 3.2 | 0.00 | 0.00 | 0.00 | 24 | 1016.1 |
| 20260906201641 | 27 | 180 | 3.2 | 3.2 | 0.00 | 0.00 | 0.00 | 24 | 1016.2 |
| 20260906201139 | 27 | 206 | 6.4 | 6.4 | 0.00 | 0.00 | 0.00 | 23 | 1016.2 |
| 20260906200636 | 27 | 237 | 6.4 | 11.3 | 0.00 | 0.00 | 0.00 | 22 | 1016.2 |
| 20260906200132 | 27 | 210 | 6.4 | 9.7 | 0.00 | 0.00 | 0.00 | 23 | 1016.2 |
| 20260906195627 | 27 | 188 | 1.6 | 1.6 | 0.00 | 0.00 | 0.00 | 24 | 1016.6 |
| 20260906195123 | 27 | 182 | 3.2 | 4.8 | 0.00 | 0.00 | 0.00 | 22 | 1016.4 |
| 20260906194619 | 27 | 199 | 6.4 | 6.4 | 0.00 | 0.00 | 0.00 | 22 | 1016.4 |
| 20260906194115 | 27 | 248 | 8.0 | 11.3 | 0.00 | 0.00 | 0.00 | 22 | 1016.2 |
| 20260906193615 | 27 | 174 | 4.8 | 4.8 | 0.00 | 0.00 | 0.00 | 20 | 1016.6 |
| 20260906193110 | 27 | 162 | 3.2 | 3.2 | 0.00 | 0.00 | 0.00 | 21 | 1016.6 |
| 20260906192606 | 27 | 148 | 6.4 | 6.4 | 0.00 | 0.00 | 0.00 | 20 | 1016.6 |
| 20260906192104 | 27 | 215 | 6.4 | 9.7 | 0.00 | 0.00 | 0.00 | 22 | 1016.6 |
| 20260906191600 | 27 | 229 | 8.0 | 14.5 | 0.00 | 0.00 | 0.00 | 23 | 1016.7 |
| 20260906191059 | 27 | 217 | 6.4 | 9.7 | 0.00 | 0.00 | 0.00 | 20 | 1016.6 |
| 20260906190558 | 26 | 240 | 8.0 | 11.3 | 0.00 | 0.00 | 0.00 | 21 | 1016.8 |
| 20260906190053 | 26 | 194 | 9.7 | 14.5 | 0.00 | 0.00 | 0.00 | 21 | 1016.8 |
| 20260906185552 | 26 | 208 | 6.4 | 9.7 | 0.00 | 0.00 | 0.00 | 22 | 1016.8 |
| 20260906185051 | 26 | 188 | 8.0 | 11.3 | 0.00 | 0.00 | 0.00 | 21 | 1017.0 |
| 20260906184546 | 26 | 196 | 4.8 | 4.8 | 0.00 | 0.00 | 0.00 | 21 | 1016.8 |
| 20260906184042 | 26 | 152 | 4.8 | 4.8 | 0.00 | 0.00 | 0.00 | 22 | 1017.0 |
| 20260906183538 | 26 | 195 | 9.7 | 11.3 | 0.00 | 0.00 | 0.00 | 20 | 1017.2 |
| 20260906183034 | 27 | 203 | 3.2 | 4.8 | 0.00 | 0.00 | 0.00 | 21 | 1017.1 |
| 20260906182529 | 27 | 145 | 3.2 | 3.2 | 0.00 | 0.00 | 0.00 | 23 | 1017.0 |
| 20260906182024 | 26 | 155 | 4.8 | 4.8 | 0.00 | 0.00 | 0.00 | 22 | 1017.4 |
| 20260906181520 | 27 | 222 | 3.2 | 4.8 | 0.00 | 0.00 | 0.00 | 22 | 1017.5 |
| 20260906181016 | 27 | 170 | 3.2 | 4.8 | 0.00 | 0.00 | 0.00 | 21 | 1017.6 |
| 20260906180510 | 26 | 253 | 8.0 | 9.7 | 0.00 | 0.00 | 0.00 | 21 | 1017.6 |
| 20260906180009 | 26 | 201 | 6.4 | 9.7 | 0.00 | 0.00 | 0.00 | 23 | 1017.6 |
| 20260906175508 | 26 | 126 | 1.6 | 3.2 | 0.00 | 0.00 | 0.00 | 23 | 1017.8 |
| 20260906175003 | 27 | 207 | 6.4 | 9.7 | 0.00 | 0.00 | 0.00 | 23 | 1018.0 |
| 20260906174501 | 27 | 173 | 6.4 | 6.4 | 0.00 | 0.00 | 0.00 | 23 | 1018.0 |
| 20260906173956 | 27 | 186 | 3.2 | 3.2 | 0.00 | 0.00 | 0.00 | 26 | 1018.3 |
| 20260906173452 | 27 | 136 | 3.2 | 4.8 | 0.00 | 0.00 | 0.00 | 27 | 1018.2 |
| 20260906172951 | 27 | 163 | 3.2 | 3.2 | 0.00 | 0.00 | 0.00 | 25 | 1018.3 |
| 20260906172447 | 26 | 106 | 1.6 | 1.6 | 0.00 | 0.00 | 0.00 | 26 | 1018.2 |
| 20260906171943 | 26 | 141 | 4.8 | 4.8 | 0.00 | 0.00 | 0.00 | 25 | 1018.2 |
| 20260906171443 | 26 | 143 | 1.6 | 1.6 | 0.00 | 0.00 | 0.00 | 25 | 1018.4 |
| 20260906170939 | 26 | 143 | 6.4 | 6.4 | 0.00 | 0.00 | 0.00 | 25 | 1018.2 |
| 20260906170435 | 26 | 122 | 1.6 | 1.6 | 0.00 | 0.00 | 0.00 | 26 | 1018.5 |
| 20260906165932 | 25 | 122 | 3.2 | 3.2 | 0.00 | 0.00 | 0.00 | 26 | 1018.4 |
| 20260906165430 | 25 | 184 | 4.8 | 4.8 | 0.00 | 0.00 | 0.00 | 25 | 1018.4 |
| 20260906164926 | 25 | 147 | 3.2 | 4.8 | 0.00 | 0.00 | 0.00 | 26 | 1018.5 |
| 20260906164424 | 24 | 145 | 3.2 | 3.2 | 0.00 | 0.00 | 0.00 | 26 | 1018.6 |
| 20260906163921 | 23 | 104 | 1.6 | 3.2 | 0.00 | 0.00 | 0.00 | 27 | 1018.5 |
| 20260906163417 | 23 | 101 | 3.2 | 3.2 | 0.00 | 0.00 | 0.00 | 28 | 1018.5 |
| 20260906162915 | 23 | 137 | 3.2 | 6.4 | 0.00 | 0.00 | 0.00 | 28 | 1018.5 |
| 20260906162413 | 23 | 123 | 3.2 | 3.2 | 0.00 | 0.00 | 0.00 | 29 | 1018.6 |
| 20260906161909 | 23 | 153 | 9.7 | 14.5 | 0.00 | 0.00 | 0.00 | 27 | 1018.6 |
| 20260906161408 | 23 | 128 | 9.7 | 12.9 | 0.00 | 0.00 | 0.00 | 28 | 1018.4 |
| 20260906160906 | 23 | 137 | 1.6 | 1.6 | 0.00 | 0.00 | 0.00 | 31 | 1018.6 |
| 20260906160401 | 23 | 165 | 1.6 | 1.6 | 0.00 | 0.00 | 0.00 | 29 | 1018.7 |
| 20260906155859 | 23 | 158 | 3.2 | 3.2 | 0.00 | 0.00 | 0.00 | 29 | 1018.5 |
| 20260906155359 | 22 | 161 | 1.6 | 1.6 | 0.00 | 0.00 | 0.00 | 29 | 1018.6 |
| 20260906154856 | 22 | 141 | 1.6 | 1.6 | 0.00 | 0.00 | 0.00 | 31 | 1018.7 |
| 20260906154355 | 22 | 148 | 3.2 | 3.2 | 0.00 | 0.00 | 0.00 | 30 | 1018.7 |
| 20260906153854 | 21 | 207 | 1.6 | 1.6 | 0.00 | 0.00 | 0.00 | 30 | 1018.6 |
| 20260906153353 | 20 | 207 | 1.6 | 1.6 | 0.00 | 0.00 | 0.00 | 35 | 1018.6 |
| 20260906152848 | 20 | 208 | 0.0 | 0.0 | 0.00 | 0.00 | 0.00 | 35 | 1018.6 |
| 20260906152349 | 19 | 208 | 0.0 | 0.0 | 0.00 | 0.00 | 0.00 | 37 | 1018.9 |
| 20260906151848 | 18 | 209 | 1.6 | 1.6 | 0.00 | 0.00 | 0.00 | 37 | 1018.6 |
| 20260906151344 | 18 | 209 | 0.0 | 0.0 | 0.00 | 0.00 | 0.00 | 41 | 1019.0 |
| 20260906150839 | 17 | 209 | 1.6 | 1.6 | 0.00 | 0.00 | 0.00 | 37 | 1018.5 |
| 20260906150335 | 17 | 209 | 0.0 | 0.0 | 0.00 | 0.00 | 0.00 | 42 | 1018.7 |
| 20260906145834 | 17 | 209 | 0.0 | 0.0 | 0.00 | 0.00 | 0.00 | 40 | 1018.7 |
| 20260906145333 | 16 | 209 | 0.0 | 0.0 | 0.00 | 0.00 | 0.00 | 42 | 1018.6 |
| 20260906144828 | 16 | 209 | 0.0 | 0.0 | 0.00 | 0.00 | 0.00 | 46 | 1018.9 |
| 20260906144323 | 16 | 209 | 1.6 | 1.6 | 0.00 | 0.00 | 0.00 | 46 | 1018.6 |
| 20260906143822 | 15 | 209 | 1.6 | 0.0 | 0.00 | 0.00 | 0.00 | 47 | 1018.4 |
| 20260906143319 | 15 | 209 | 0.0 | 0.0 | 0.00 | 0.00 | 0.00 | 49 | 1018.4 |
| 20260906142814 | 14 | 209 | 0.0 | 0.0 | 0.00 | 0.00 | 0.00 | 51 | 1018.6 |
| 20260906142309 | 13 | 209 | 0.0 | 0.0 | 0.00 | 0.00 | 0.00 | 51 | 1018.6 |
| 20260906141809 | 13 | 209 | 0.0 | 0.0 | 0.00 | 0.00 | 0.00 | 52 | 1018.3 |
| 20260906141303 | 13 | 209 | 0.0 | 0.0 | 0.00 | 0.00 | 0.00 | 54 | 1018.5 |
| 20260906140802 | 12 | 209 | 0.0 | 0.0 | 0.00 | 0.00 | 0.00 | 56 | 1018.2 |
| 20260906140257 | 12 | 209 | 0.0 | 0.0 | 0.00 | 0.00 | 0.00 | 57 | 1018.4 |
| 20260906135755 | 11 | 209 | 0.0 | 0.0 | 0.00 | 0.00 | 0.00 | 56 | 1017.9 |
| 20260906135250 | 11 | 209 | 0.0 | 0.0 | 0.00 | 0.00 | 0.00 | 58 | 1018.0 |
| 20260906134746 | 11 | 209 | 0.0 | 0.0 | 0.00 | 0.00 | 0.00 | 57 | 1018.3 |
| 20260906134240 | 10 | 209 | 0.0 | 0.0 | 0.00 | 0.00 | 0.00 | 59 | 1018.2 |
| 20260906133736 | 10 | 209 | 0.0 | 0.0 | 0.00 | 0.00 | 0.00 | 62 | 1018.2 |
| 20260906133231 | 10 | 209 | 0.0 | 0.0 | 0.00 | 0.00 | 0.00 | 63 | 1018.4 |
| 20260906132727 | 10 | 209 | 0.0 | 0.0 | 0.00 | 0.00 | 0.00 | 62 | 1018.0 |
| 20260906132222 | 10 | 209 | 0.0 | 0.0 | 0.00 | 0.00 | 0.00 | 61 | 1018.0 |
| 20260906131718 | 10 | 209 | 0.0 | 0.0 | 0.00 | 0.00 | 0.00 | 62 | 1017.9 |
| 20260906131212 | 10 | 209 | 0.0 | 0.0 | 0.00 | 0.00 | 0.00 | 63 | 1018.0 |
| 20260906130708 | 10 | 209 | 0.0 | 0.0 | 0.00 | 0.00 | 0.00 | 62 | 1017.9 |
| 20260906130203 | 10 | 209 | 0.0 | 0.0 | 0.00 | 0.00 | 0.00 | 62 | 1017.9 |
| 20260906125701 | 10 | 209 | 0.0 | 0.0 | 0.00 | 0.00 | 0.00 | 63 | 1017.8 |
| 20260906125200 | 10 | 209 | 0.0 | 0.0 | 0.00 | 0.00 | 0.00 | 62 | 1017.9 |
| 20260906124655 | 10 | 209 | 0.0 | 0.0 | 0.00 | 0.00 | 0.00 | 62 | 1017.7 |
| 20260906124150 | 10 | 209 | 0.0 | 0.0 | 0.00 | 0.00 | 0.00 | 59 | 1017.7 |
| 20260906123649 | 10 | 209 | 0.0 | 0.0 | 0.00 | 0.00 | 0.00 | 57 | 1017.5 |
| 20260906123145 | 10 | 209 | 0.0 | 0.0 | 0.00 | 0.00 | 0.00 | 60 | 1017.8 |
| 20260906122643 | 10 | 209 | 0.0 | 0.0 | 0.00 | 0.00 | 0.00 | 58 | 1017.7 |
| 20260906122139 | 10 | 209 | 0.0 | 0.0 | 0.00 | 0.00 | 0.00 | 58 | 1017.7 |
| 20260906121636 | 11 | 209 | 0.0 | 0.0 | 0.00 | 0.00 | 0.00 | 59 | 1017.8 |
| 20260906121132 | 11 | 209 | 0.0 | 0.0 | 0.00 | 0.00 | 0.00 | 55 | 1017.8 |
| 20260906120627 | 11 | 209 | 0.0 | 0.0 | 0.00 | 0.00 | 0.00 | 56 | 1017.7 |
| 20260906120125 | 11 | 209 | 1.6 | 1.6 | 0.00 | 0.00 | 0.00 | 56 | 1017.6 |
| 20260906115625 | 11 | 209 | 0.0 | 0.0 | 0.00 | 0.00 | 0.00 | 57 | 1017.9 |
| 20260906115121 | 11 | 209 | 0.0 | 0.0 | 0.00 | 0.00 | 0.00 | 55 | 1017.8 |
| 20260906114619 | 11 | 209 | 0.0 | 0.0 | 0.00 | 0.00 | 0.00 | 52 | 1017.7 |
| 20260906114115 | 11 | 209 | 0.0 | 0.0 | 0.00 | 0.00 | 0.00 | 58 | 1017.7 |
| 20260906113614 | 11 | 209 | 0.0 | 0.0 | 0.00 | 0.00 | 0.00 | 57 | 1017.6 |
| 20260906113109 | 11 | 209 | 0.0 | 0.0 | 0.00 | 0.00 | 0.00 | 56 | 1017.4 |
| 20260906112609 | 11 | 209 | 0.0 | 0.0 | 0.00 | 0.00 | 0.00 | 56 | 1017.6 |
| 20260906112106 | 11 | 209 | 0.0 | 0.0 | 0.00 | 0.00 | 0.00 | 57 | 1017.8 |
| 20260906111605 | 11 | 209 | 0.0 | 0.0 | 0.00 | 0.00 | 0.00 | 56 | 1017.8 |
| 20260906111100 | 11 | 209 | 0.0 | 0.0 | 0.00 | 0.00 | 0.00 | 57 | 1017.8 |
| 20260906110600 | 11 | 209 | 0.0 | 0.0 | 0.00 | 0.00 | 0.00 | 55 | 1017.7 |
| 20260906110100 | 11 | 209 | 0.0 | 0.0 | 0.00 | 0.00 | 0.00 | 58 | 1017.7 |
| 20260906105554 | 11 | 209 | 0.0 | 0.0 | 0.00 | 0.00 | 0.00 | 55 | 1017.4 |
| 20260906105051 | 11 | 209 | 0.0 | 0.0 | 0.00 | 0.00 | 0.00 | 52 | 1017.6 |
| 20260906104549 | 11 | 209 | 0.0 | 0.0 | 0.00 | 0.00 | 0.00 | 53 | 1017.7 |
| 20260906104044 | 11 | 209 | 1.6 | 1.6 | 0.00 | 0.00 | 0.00 | 54 | 1017.6 |
| 20260906103542 | 11 | 209 | 0.0 | 0.0 | 0.00 | 0.00 | 0.00 | 55 | 1017.6 |
| 20260906103038 | 11 | 209 | 0.0 | 0.0 | 0.00 | 0.00 | 0.00 | 52 | 1017.6 |
| 20260906102537 | 11 | 209 | 0.0 | 0.0 | 0.00 | 0.00 | 0.00 | 55 | 1017.4 |
| 20260906102032 | 11 | 209 | 1.6 | 1.6 | 0.00 | 0.00 | 0.00 | 55 | 1017.4 |
| 20260906101527 | 11 | 209 | 1.6 | 1.6 | 0.00 | 0.00 | 0.00 | 57 | 1017.6 |
| 20260906101022 | 11 | 209 | 0.0 | 0.0 | 0.00 | 0.00 | 0.00 | 55 | 1017.5 |
| 20260906100518 | 11 | 209 | 0.0 | 0.0 | 0.00 | 0.00 | 0.00 | 55 | 1017.1 |
| 20260906100012 | 11 | 209 | 0.0 | 0.0 | 0.00 | 0.00 | 0.00 | 56 | 1017.4 |
| 20260906095507 | 12 | 209 | 0.0 | 0.0 | 0.00 | 0.00 | 0.00 | 54 | 1017.4 |
| 20260906095002 | 12 | 209 | 0.0 | 0.0 | 0.00 | 0.00 | 0.00 | 53 | 1017.4 |
| 20260906094501 | 12 | 209 | 0.0 | 0.0 | 0.00 | 0.00 | 0.00 | 55 | 1017.0 |
| 20260906093957 | 11 | 209 | 0.0 | 1.6 | 0.00 | 0.00 | 0.00 | 56 | 1017.1 |
| 20260906093453 | 11 | 209 | 1.6 | 1.6 | 0.00 | 0.00 | 0.00 | 57 | 1017.0 |
| 20260906092948 | 11 | 209 | 0.0 | 0.0 | 0.00 | 0.00 | 0.00 | 56 | 1017.0 |
| 20260906092448 | 11 | 209 | 0.0 | 0.0 | 0.00 | 0.00 | 0.00 | 57 | 1017.1 |
| 20260906091943 | 11 | 209 | 0.0 | 0.0 | 0.00 | 0.00 | 0.00 | 55 | 1017.1 |
| 20260906091438 | 11 | 209 | 0.0 | 0.0 | 0.00 | 0.00 | 0.00 | 55 | 1017.0 |
| 20260906090935 | 11 | 209 | 0.0 | 0.0 | 0.00 | 0.00 | 0.00 | 54 | 1016.9 |
| 20260906090430 | 11 | 209 | 0.0 | 0.0 | 0.00 | 0.00 | 0.00 | 55 | 1017.0 |
| 20260906085924 | 11 | 209 | 0.0 | 1.6 | 0.00 | 0.00 | 0.00 | 57 | 1016.9 |
| 20260906085423 | 12 | 209 | 0.0 | 1.6 | 0.00 | 0.00 | 0.00 | 56 | 1016.9 |
| 20260906084922 | 12 | 209 | 0.0 | 0.0 | 0.00 | 0.00 | 0.00 | 55 | 1016.8 |
| 20260906084418 | 12 | 209 | 0.0 | 0.0 | 0.00 | 0.00 | 0.00 | 53 | 1016.8 |
| 20260906083917 | 12 | 209 | 0.0 | 0.0 | 0.00 | 0.00 | 0.00 | 53 | 1017.0 |
| 20260906083413 | 12 | 209 | 0.0 | 0.0 | 0.00 | 0.00 | 0.00 | 53 | 1016.9 |
| 20260906082911 | 12 | 209 | 0.0 | 0.0 | 0.00 | 0.00 | 0.00 | 52 | 1016.9 |
| 20260906082407 | 12 | 209 | 0.0 | 0.0 | 0.00 | 0.00 | 0.00 | 53 | 1017.0 |
| 20260906081903 | 12 | 209 | 0.0 | 0.0 | 0.00 | 0.00 | 0.00 | 53 | 1016.9 |
| 20260906081358 | 12 | 209 | 0.0 | 0.0 | 0.00 | 0.00 | 0.00 | 52 | 1017.0 |
| 20260906080854 | 13 | 209 | 1.6 | 1.6 | 0.00 | 0.00 | 0.00 | 53 | 1016.9 |
| 20260906080351 | 13 | 209 | 0.0 | 0.0 | 0.00 | 0.00 | 0.00 | 52 | 1017.1 |
| 20260906075849 | 13 | 209 | 0.0 | 0.0 | 0.00 | 0.00 | 0.00 | 52 | 1017.2 |
| 20260906075344 | 12 | 209 | 0.0 | 0.0 | 0.00 | 0.00 | 0.00 | 53 | 1016.9 |
| 20260906074840 | 12 | 209 | 0.0 | 0.0 | 0.00 | 0.00 | 0.00 | 54 | 1017.2 |
| 20260906074340 | 12 | 209 | 0.0 | 0.0 | 0.00 | 0.00 | 0.00 | 54 | 1017.2 |
| 20260906073838 | 12 | 209 | 0.0 | 0.0 | 0.00 | 0.00 | 0.00 | 55 | 1017.1 |
| 20260906073334 | 12 | 209 | 0.0 | 0.0 | 0.00 | 0.00 | 0.00 | 55 | 1017.1 |
| 20260906072830 | 12 | 209 | 0.0 | 0.0 | 0.00 | 0.00 | 0.00 | 55 | 1017.0 |
| 20260906072326 | 12 | 209 | 0.0 | 0.0 | 0.00 | 0.00 | 0.00 | 56 | 1016.9 |
| 20260906071822 | 12 | 209 | 0.0 | 0.0 | 0.00 | 0.00 | 0.00 | 56 | 1016.9 |
| 20260906071322 | 12 | 209 | 0.0 | 0.0 | 0.00 | 0.00 | 0.00 | 54 | 1017.0 |
| 20260906070818 | 12 | 209 | 0.0 | 0.0 | 0.00 | 0.00 | 0.00 | 55 | 1016.8 |
| 20260906070313 | 12 | 209 | 0.0 | 0.0 | 0.00 | 0.00 | 0.00 | 54 | 1016.9 |
| 20260906065808 | 12 | 209 | 0.0 | 0.0 | 0.00 | 0.00 | 0.00 | 54 | 1016.8 |
| 20260906065305 | 12 | 209 | 0.0 | 0.0 | 0.00 | 0.00 | 0.00 | 54 | 1016.9 |
| 20260906064759 | 13 | 209 | 0.0 | 0.0 | 0.00 | 0.00 | 0.00 | 53 | 1016.7 |
| 20260906064255 | 13 | 209 | 0.0 | 0.0 | 0.00 | 0.00 | 0.00 | 51 | 1016.9 |
| 20260906063749 | 13 | 209 | 0.0 | 0.0 | 0.00 | 0.00 | 0.00 | 51 | 1016.8 |
| 20260906063245 | 13 | 209 | 0.0 | 0.0 | 0.00 | 0.00 | 0.00 | 50 | 1016.8 |
| 20260906062740 | 13 | 209 | 0.0 | 0.0 | 0.00 | 0.00 | 0.00 | 50 | 1016.8 |
| 20260906062239 | 13 | 209 | 0.0 | 0.0 | 0.00 | 0.00 | 0.00 | 49 | 1016.8 |
| 20260906061735 | 13 | 209 | 0.0 | 0.0 | 0.00 | 0.00 | 0.00 | 51 | 1016.7 |
| 20260906061231 | 13 | 209 | 0.0 | 0.0 | 0.00 | 0.00 | 0.00 | 50 | 1016.6 |
| 20260906060726 | 13 | 209 | 0.0 | 0.0 | 0.00 | 0.00 | 0.00 | 50 | 1016.7 |
| 20260906060224 | 14 | 209 | 0.0 | 0.0 | 0.00 | 0.00 | 0.00 | 48 | 1016.8 |
| 20260906055719 | 14 | 209 | 0.0 | 0.0 | 0.00 | 0.00 | 0.00 | 47 | 1016.6 |
| 20260906055214 | 15 | 209 | 0.0 | 0.0 | 0.00 | 0.00 | 0.00 | 47 | 1016.7 |
| 20260906054709 | 15 | 209 | 0.0 | 0.0 | 0.00 | 0.00 | 0.00 | 46 | 1016.7 |
| 20260906054204 | 15 | 209 | 0.0 | 0.0 | 0.00 | 0.00 | 0.00 | 44 | 1016.7 |
| 20260906053701 | 16 | 209 | 0.0 | 0.0 | 0.00 | 0.00 | 0.00 | 43 | 1016.7 |
| 20260906053155 | 16 | 209 | 0.0 | 0.0 | 0.00 | 0.00 | 0.00 | 41 | 1016.6 |
| 20260906052651 | 16 | 209 | 0.0 | 0.0 | 0.00 | 0.00 | 0.00 | 40 | 1016.3 |
| 20260906052147 | 16 | 209 | 0.0 | 0.0 | 0.00 | 0.00 | 0.00 | 39 | 1016.7 |
| 20260906051643 | 16 | 209 | 0.0 | 0.0 | 0.00 | 0.00 | 0.00 | 39 | 1016.7 |
| 20260906051143 | 16 | 209 | 0.0 | 0.0 | 0.00 | 0.00 | 0.00 | 38 | 1016.7 |
| 20260906050639 | 16 | 209 | 0.0 | 0.0 | 0.00 | 0.00 | 0.00 | 39 | 1016.7 |
| 20260906050134 | 16 | 209 | 0.0 | 0.0 | 0.00 | 0.00 | 0.00 | 39 | 1016.6 |
| 20260906045632 | 16 | 210 | 0.0 | 0.0 | 0.00 | 0.00 | 0.00 | 39 | 1016.7 |
| 20260906045128 | 16 | 210 | 0.0 | 0.0 | 0.00 | 0.00 | 0.00 | 40 | 1016.6 |
| 20260906044624 | 16 | 210 | 0.0 | 0.0 | 0.00 | 0.00 | 0.00 | 38 | 1016.7 |
| 20260906044119 | 16 | 210 | 0.0 | 0.0 | 0.00 | 0.00 | 0.00 | 39 | 1016.6 |
| 20260906043615 | 16 | 210 | 0.0 | 0.0 | 0.00 | 0.00 | 0.00 | 40 | 1016.8 |
| 20260906043110 | 16 | 210 | 0.0 | 0.0 | 0.00 | 0.00 | 0.00 | 40 | 1016.4 |
| 20260906042609 | 16 | 210 | 0.0 | 0.0 | 0.00 | 0.00 | 0.00 | 40 | 1016.6 |
| 20260906042104 | 17 | 207 | 0.0 | 0.0 | 0.00 | 0.00 | 0.00 | 39 | 1016.6 |
| 20260906041600 | 17 | 207 | 0.0 | 0.0 | 0.00 | 0.00 | 0.00 | 39 | 1016.7 |
| 20260906041054 | 17 | 208 | 1.6 | 1.6 | 0.00 | 0.00 | 0.00 | 38 | 1016.8 |
| 20260906040550 | 18 | 206 | 1.6 | 1.6 | 0.00 | 0.00 | 0.00 | 37 | 1016.6 |
| 20260906040045 | 18 | 206 | 0.0 | 0.0 | 0.00 | 0.00 | 0.00 | 35 | 1016.2 |
| 20260906035541 | 18 | 206 | 0.0 | 0.0 | 0.00 | 0.00 | 0.00 | 35 | 1016.4 |
| 20260906035037 | 18 | 206 | 0.0 | 0.0 | 0.00 | 0.00 | 0.00 | 34 | 1016.4 |
| 20260906034536 | 18 | 206 | 0.0 | 0.0 | 0.00 | 0.00 | 0.00 | 35 | 1016.4 |
| 20260906034031 | 18 | 206 | 0.0 | 0.0 | 0.00 | 0.00 | 0.00 | 35 | 1016.3 |
| 20260906033526 | 18 | 206 | 0.0 | 0.0 | 0.00 | 0.00 | 0.00 | 34 | 1016.4 |
| 20260906033022 | 18 | 206 | 0.0 | 0.0 | 0.00 | 0.00 | 0.00 | 35 | 1016.4 |
| 20260906032519 | 18 | 206 | 0.0 | 0.0 | 0.00 | 0.00 | 0.00 | 34 | 1016.3 |
| 20260906032018 | 18 | 206 | 0.0 | 0.0 | 0.00 | 0.00 | 0.00 | 34 | 1016.3 |
| 20260906031514 | 19 | 206 | 0.0 | 0.0 | 0.00 | 0.00 | 0.00 | 34 | 1016.6 |
| 20260906031010 | 19 | 206 | 0.0 | 0.0 | 0.00 | 0.00 | 0.00 | 33 | 1016.4 |
| 20260906030509 | 20 | 206 | 0.0 | 0.0 | 0.00 | 0.00 | 0.00 | 34 | 1016.4 |
| 20260906030009 | 20 | 206 | 0.0 | 0.0 | 0.00 | 0.00 | 0.00 | 34 | 1016.8 |
| 20260906025508 | 20 | 206 | 1.6 | 1.6 | 0.00 | 0.00 | 0.00 | 35 | 1016.4 |
| 20260906025006 | 20 | 206 | 0.0 | 0.0 | 0.00 | 0.00 | 0.00 | 35 | 1016.6 |
| 20260906024501 | 20 | 206 | 0.0 | 0.0 | 0.00 | 0.00 | 0.00 | 35 | 1016.7 |
| 20260906023956 | 21 | 206 | 0.0 | 0.0 | 0.00 | 0.00 | 0.00 | 35 | 1016.3 |
| 20260906023452 | 21 | 206 | 0.0 | 1.6 | 0.00 | 0.00 | 0.00 | 34 | 1016.3 |
| 20260906022947 | 21 | 206 | 0.0 | 0.0 | 0.00 | 0.00 | 0.00 | 34 | 1016.3 |
| 20260906022442 | 21 | 206 | 0.0 | 0.0 | 0.00 | 0.00 | 0.00 | 34 | 1016.4 |
| 20260906021938 | 21 | 206 | 0.0 | 0.0 | 0.00 | 0.00 | 0.00 | 35 | 1016.4 |
| 20260906021438 | 21 | 206 | 0.0 | 0.0 | 0.00 | 0.00 | 0.00 | 35 | 1016.6 |
| 20260906020932 | 22 | 206 | 0.0 | 0.0 | 0.00 | 0.00 | 0.00 | 33 | 1016.3 |
| 20260906020427 | 22 | 206 | 0.0 | 0.0 | 0.00 | 0.00 | 0.00 | 33 | 1016.6 |
| 20260906015921 | 22 | 206 | 0.0 | 0.0 | 0.00 | 0.00 | 0.00 | 30 | 1016.4 |
| 20260906015421 | 23 | 206 | 0.0 | 0.0 | 0.00 | 0.00 | 0.00 | 30 | 1016.6 |
| 20260906014921 | 23 | 206 | 0.0 | 0.0 | 0.00 | 0.00 | 0.00 | 29 | 1016.3 |
| 20260906014420 | 23 | 206 | 0.0 | 0.0 | 0.00 | 0.00 | 0.00 | 29 | 1016.3 |
| 20260906013917 | 24 | 206 | 0.0 | 0.0 | 0.00 | 0.00 | 0.00 | 28 | 1016.4 |
| 20260906013412 | 25 | 206 | 0.0 | 0.0 | 0.00 | 0.00 | 0.00 | 26 | 1016.7 |
| 20260906012908 | 25 | 206 | 0.0 | 0.0 | 0.00 | 0.00 | 0.00 | 26 | 1016.6 |
| 20260906012402 | 26 | 206 | 0.0 | 0.0 | 0.00 | 0.00 | 0.00 | 25 | 1016.7 |
| 20260906011901 | 26 | 206 | 0.0 | 0.0 | 0.00 | 0.00 | 0.00 | 25 | 1016.8 |
| 20260906011356 | 26 | 206 | 0.0 | 0.0 | 0.00 | 0.00 | 0.00 | 24 | 1016.8 |
| 20260906010852 | 26 | 206 | 0.0 | 0.0 | 0.00 | 0.00 | 0.00 | 23 | 1016.7 |
| 20260906010348 | 27 | 206 | 0.0 | 0.0 | 0.00 | 0.00 | 0.00 | 23 | 1016.8 |
| 20260906005843 | 27 | 206 | 0.0 | 0.0 | 0.00 | 0.00 | 0.00 | 24 | 1016.7 |
| 20260906005343 | 27 | 206 | 0.0 | 0.0 | 0.00 | 0.00 | 0.00 | 23 | 1016.6 |
| 20260906004841 | 27 | 206 | 0.0 | 0.0 | 0.00 | 0.00 | 0.00 | 23 | 1016.6 |
| 20260906004336 | 27 | 206 | 0.0 | 0.0 | 0.00 | 0.00 | 0.00 | 23 | 1016.8 |
| 20260906003831 | 27 | 204 | 0.0 | 0.0 | 0.00 | 0.00 | 0.00 | 23 | 1016.7 |
| 20260906003326 | 27 | 178 | 1.6 | 1.6 | 0.00 | 0.00 | 0.00 | 23 | 1016.8 |
| 20260906002822 | 27 | 178 | 0.0 | 0.0 | 0.00 | 0.00 | 0.00 | 22 | 1016.6 |
| 20260906002321 | 27 | 178 | 1.6 | 1.6 | 0.00 | 0.00 | 0.00 | 21 | 1016.7 |
| 20260906001818 | 27 | 190 | 1.6 | 1.6 | 0.00 | 0.00 | 0.00 | 21 | 1016.6 |
| 20260906001313 | 27 | 187 | 3.2 | 4.8 | 0.00 | 0.00 | 0.00 | 21 | 1016.6 |
| 20260906000813 | 27 | 157 | 1.6 | 1.6 | 0.00 | 0.00 | 0.00 | 21 | 1016.7 |
| 20260906000307 | 27 | 208 | 6.4 | 6.4 | 0.00 | 0.00 | 0.00 | 18 | 1016.6 |
| 20260905235802 | 27 | 206 | 3.2 | 3.2 | 0.00 | 0.00 | 0.00 | 20 | 1016.6 |
| 20260905235306 | 27 | 180 | 3.2 | 3.2 | 0.00 | 0.00 | 0.00 | 20 | 1016.7 |
| 20260905234758 | 27 | 198 | 3.2 | 3.2 | 0.00 | 0.00 | 0.00 | 20 | 1016.9 |
| 20260905234253 | 27 | 200 | 1.6 | 1.6 | 0.00 | 0.00 | 0.00 | 21 | 1016.6 |